<?xml version="1.0" encoding="UTF-8" standalone="no" ?>
<gpx xmlns="http://www.topografix.com/GPX/1/1" xmlns:xsi="http://www.w3.org/2001/XMLSchema-instance" xsi:schemaLocation="http://www.topografix.com/GPX/1/1 http://www.topografix.com/GPX/1/1/gpx.xsd" version="1.1" creator="VisuGPX - https://www.visugpx.com">
  <metadata>
    <name>rando marcillac 11 km</name>
    <desc><![CDATA[photos de la rando dispo en suivant le lien [url]https://rando-pedestre-33.over-blog.com/2021/04/rando-marcillac-11.7-km.html[/url]]]></desc>
  </metadata>
  <trk>
    <name><![CDATA[rando marcillac 11 km]]></name>
    <trkseg>
      <trkpt lat="45.26874" lon="-0.52426">
        <ele>53</ele>
        <time>2021-01-10T18:23:07Z</time>
      </trkpt>
      <trkpt lat="45.26875" lon="-0.5245">
        <ele>52</ele>
        <time>2021-01-10T18:23:30Z</time>
      </trkpt>
      <trkpt lat="45.2678" lon="-0.52482">
        <ele>51</ele>
        <time>2021-01-10T18:25:40Z</time>
      </trkpt>
      <trkpt lat="45.26712" lon="-0.52485">
        <ele>51</ele>
        <time>2021-01-10T18:27:11Z</time>
      </trkpt>
      <trkpt lat="45.26651" lon="-0.52512">
        <ele>49</ele>
        <time>2021-01-10T18:28:36Z</time>
      </trkpt>
      <trkpt lat="45.26587" lon="-0.52542">
        <ele>47</ele>
        <time>2021-01-10T18:30:06Z</time>
      </trkpt>
      <trkpt lat="45.26553" lon="-0.52571">
        <ele>46</ele>
        <time>2021-01-10T18:30:59Z</time>
      </trkpt>
      <trkpt lat="45.26539" lon="-0.52628">
        <ele>44</ele>
        <time>2021-01-10T18:31:55Z</time>
      </trkpt>
      <trkpt lat="45.2656" lon="-0.52684">
        <ele>42</ele>
        <time>2021-01-10T18:32:55Z</time>
      </trkpt>
      <trkpt lat="45.2659" lon="-0.52742">
        <ele>40</ele>
        <time>2021-01-10T18:34:03Z</time>
      </trkpt>
      <trkpt lat="45.26577" lon="-0.52768">
        <ele>38</ele>
        <time>2021-01-10T18:34:33Z</time>
      </trkpt>
      <trkpt lat="45.26549" lon="-0.52802">
        <ele>37</ele>
        <time>2021-01-10T18:35:22Z</time>
      </trkpt>
      <trkpt lat="45.26496" lon="-0.52864">
        <ele>34</ele>
        <time>2021-01-10T18:36:53Z</time>
      </trkpt>
      <trkpt lat="45.26493" lon="-0.52939">
        <ele>33</ele>
        <time>2021-01-10T18:38:04Z</time>
      </trkpt>
      <trkpt lat="45.26477" lon="-0.53025">
        <ele>32</ele>
        <time>2021-01-10T18:39:27Z</time>
      </trkpt>
      <trkpt lat="45.2646" lon="-0.53111">
        <ele>32</ele>
        <time>2021-01-10T18:40:51Z</time>
      </trkpt>
      <trkpt lat="45.26444" lon="-0.53154">
        <ele>31</ele>
        <time>2021-01-10T18:41:37Z</time>
      </trkpt>
      <trkpt lat="45.26409" lon="-0.53227">
        <ele>29</ele>
        <time>2021-01-10T18:43:00Z</time>
      </trkpt>
      <trkpt lat="45.26374" lon="-0.533">
        <ele>28</ele>
        <time>2021-01-10T18:44:23Z</time>
      </trkpt>
      <trkpt lat="45.2633" lon="-0.5339">
        <ele>26</ele>
        <time>2021-01-10T18:46:06Z</time>
      </trkpt>
      <trkpt lat="45.26302" lon="-0.53495">
        <ele>26</ele>
        <time>2021-01-10T18:47:51Z</time>
      </trkpt>
      <trkpt lat="45.26278" lon="-0.53559">
        <ele>24</ele>
        <time>2021-01-10T18:49:00Z</time>
      </trkpt>
      <trkpt lat="45.26258" lon="-0.53642">
        <ele>23</ele>
        <time>2021-01-10T18:50:22Z</time>
      </trkpt>
      <trkpt lat="45.26248" lon="-0.53736">
        <ele>21</ele>
        <time>2021-01-10T18:51:51Z</time>
      </trkpt>
      <trkpt lat="45.26245" lon="-0.53769">
        <ele>20</ele>
        <time>2021-01-10T18:52:22Z</time>
      </trkpt>
      <trkpt lat="45.26233" lon="-0.53818">
        <ele>19</ele>
        <time>2021-01-10T18:53:11Z</time>
      </trkpt>
      <trkpt lat="45.26232" lon="-0.53842">
        <ele>18</ele>
        <time>2021-01-10T18:53:34Z</time>
      </trkpt>
      <trkpt lat="45.26235" lon="-0.53863">
        <ele>18</ele>
        <time>2021-01-10T18:53:54Z</time>
      </trkpt>
      <trkpt lat="45.2622" lon="-0.5388">
        <ele>18</ele>
        <time>2021-01-10T18:54:20Z</time>
      </trkpt>
      <trkpt lat="45.26201" lon="-0.53895">
        <ele>17</ele>
        <time>2021-01-10T18:54:49Z</time>
      </trkpt>
      <trkpt lat="45.26166" lon="-0.53919">
        <ele>16</ele>
        <time>2021-01-10T18:55:40Z</time>
      </trkpt>
      <trkpt lat="45.26138" lon="-0.53945">
        <ele>17</ele>
        <time>2021-01-10T18:56:25Z</time>
      </trkpt>
      <trkpt lat="45.26114" lon="-0.53962">
        <ele>17</ele>
        <time>2021-01-10T18:57:01Z</time>
      </trkpt>
      <trkpt lat="45.26096" lon="-0.53972">
        <ele>17</ele>
        <time>2021-01-10T18:57:27Z</time>
      </trkpt>
      <trkpt lat="45.26051" lon="-0.53953">
        <ele>21</ele>
        <time>2021-01-10T18:58:29Z</time>
      </trkpt>
      <trkpt lat="45.26041" lon="-0.53933">
        <ele>22</ele>
        <time>2021-01-10T18:58:52Z</time>
      </trkpt>
      <trkpt lat="45.26033" lon="-0.53906">
        <ele>23</ele>
        <time>2021-01-10T18:59:20Z</time>
      </trkpt>
      <trkpt lat="45.26017" lon="-0.53892">
        <ele>25</ele>
        <time>2021-01-10T18:59:45Z</time>
      </trkpt>
      <trkpt lat="45.25982" lon="-0.53891">
        <ele>27</ele>
        <time>2021-01-10T19:00:32Z</time>
      </trkpt>
      <trkpt lat="45.25929" lon="-0.53891">
        <ele>28</ele>
        <time>2021-01-10T19:01:42Z</time>
      </trkpt>
      <trkpt lat="45.25869" lon="-0.53891">
        <ele>28</ele>
        <time>2021-01-10T19:03:02Z</time>
      </trkpt>
      <trkpt lat="45.25793" lon="-0.53892">
        <ele>29</ele>
        <time>2021-01-10T19:04:44Z</time>
      </trkpt>
      <trkpt lat="45.2575" lon="-0.53891">
        <ele>30</ele>
        <time>2021-01-10T19:05:41Z</time>
      </trkpt>
      <trkpt lat="45.25704" lon="-0.53907">
        <ele>32</ele>
        <time>2021-01-10T19:06:44Z</time>
      </trkpt>
      <trkpt lat="45.25664" lon="-0.53924">
        <ele>33</ele>
        <time>2021-01-10T19:07:40Z</time>
      </trkpt>
      <trkpt lat="45.25622" lon="-0.5395">
        <ele>33</ele>
        <time>2021-01-10T19:08:41Z</time>
      </trkpt>
      <trkpt lat="45.25574" lon="-0.53968">
        <ele>34</ele>
        <time>2021-01-10T19:09:47Z</time>
      </trkpt>
      <trkpt lat="45.25564" lon="-0.53921">
        <ele>34</ele>
        <time>2021-01-10T19:10:34Z</time>
      </trkpt>
      <trkpt lat="45.25552" lon="-0.53845">
        <ele>35</ele>
        <time>2021-01-10T19:11:47Z</time>
      </trkpt>
      <trkpt lat="45.25541" lon="-0.53787">
        <ele>34</ele>
        <time>2021-01-10T19:12:43Z</time>
      </trkpt>
      <trkpt lat="45.25538" lon="-0.53711">
        <ele>34</ele>
        <time>2021-01-10T19:13:55Z</time>
      </trkpt>
      <trkpt lat="45.25536" lon="-0.5363">
        <ele>34</ele>
        <time>2021-01-10T19:15:11Z</time>
      </trkpt>
      <trkpt lat="45.25535" lon="-0.5357">
        <ele>34</ele>
        <time>2021-01-10T19:16:07Z</time>
      </trkpt>
      <trkpt lat="45.25534" lon="-0.53504">
        <ele>34</ele>
        <time>2021-01-10T19:17:09Z</time>
      </trkpt>
      <trkpt lat="45.25533" lon="-0.53426">
        <ele>33</ele>
        <time>2021-01-10T19:18:23Z</time>
      </trkpt>
      <trkpt lat="45.25531" lon="-0.53364">
        <ele>33</ele>
        <time>2021-01-10T19:19:21Z</time>
      </trkpt>
      <trkpt lat="45.25529" lon="-0.53299">
        <ele>34</ele>
        <time>2021-01-10T19:20:22Z</time>
      </trkpt>
      <trkpt lat="45.25528" lon="-0.53227">
        <ele>35</ele>
        <time>2021-01-10T19:21:30Z</time>
      </trkpt>
      <trkpt lat="45.25525" lon="-0.53159">
        <ele>35</ele>
        <time>2021-01-10T19:22:34Z</time>
      </trkpt>
      <trkpt lat="45.25519" lon="-0.53064">
        <ele>35</ele>
        <time>2021-01-10T19:24:03Z</time>
      </trkpt>
      <trkpt lat="45.25514" lon="-0.52957">
        <ele>36</ele>
        <time>2021-01-10T19:25:44Z</time>
      </trkpt>
      <trkpt lat="45.25508" lon="-0.52848">
        <ele>36</ele>
        <time>2021-01-10T19:27:27Z</time>
      </trkpt>
      <trkpt lat="45.25501" lon="-0.52739">
        <ele>37</ele>
        <time>2021-01-10T19:29:09Z</time>
      </trkpt>
      <trkpt lat="45.25495" lon="-0.5263">
        <ele>37</ele>
        <time>2021-01-10T19:30:52Z</time>
      </trkpt>
      <trkpt lat="45.25488" lon="-0.5252">
        <ele>36</ele>
        <time>2021-01-10T19:32:36Z</time>
      </trkpt>
      <trkpt lat="45.25482" lon="-0.52411">
        <ele>34</ele>
        <time>2021-01-10T19:34:19Z</time>
      </trkpt>
      <trkpt lat="45.25479" lon="-0.5236">
        <ele>36</ele>
        <time>2021-01-10T19:35:07Z</time>
      </trkpt>
      <trkpt lat="45.25455" lon="-0.523">
        <ele>37</ele>
        <time>2021-01-10T19:36:12Z</time>
      </trkpt>
      <trkpt lat="45.25421" lon="-0.52218">
        <ele>38</ele>
        <time>2021-01-10T19:37:41Z</time>
      </trkpt>
      <trkpt lat="45.25387" lon="-0.52137">
        <ele>38</ele>
        <time>2021-01-10T19:39:10Z</time>
      </trkpt>
      <trkpt lat="45.25356" lon="-0.52052">
        <ele>38</ele>
        <time>2021-01-10T19:40:39Z</time>
      </trkpt>
      <trkpt lat="45.25321" lon="-0.51976">
        <ele>38</ele>
        <time>2021-01-10T19:42:05Z</time>
      </trkpt>
      <trkpt lat="45.25284" lon="-0.51918">
        <ele>39</ele>
        <time>2021-01-10T19:43:18Z</time>
      </trkpt>
      <trkpt lat="45.2525" lon="-0.5186">
        <ele>40</ele>
        <time>2021-01-10T19:44:29Z</time>
      </trkpt>
      <trkpt lat="45.25223" lon="-0.51809">
        <ele>40</ele>
        <time>2021-01-10T19:45:29Z</time>
      </trkpt>
      <trkpt lat="45.25202" lon="-0.5176">
        <ele>41</ele>
        <time>2021-01-10T19:46:23Z</time>
      </trkpt>
      <trkpt lat="45.25194" lon="-0.51712">
        <ele>41</ele>
        <time>2021-01-10T19:47:09Z</time>
      </trkpt>
      <trkpt lat="45.25181" lon="-0.5165">
        <ele>40</ele>
        <time>2021-01-10T19:48:10Z</time>
      </trkpt>
      <trkpt lat="45.25165" lon="-0.51584">
        <ele>40</ele>
        <time>2021-01-10T19:49:16Z</time>
      </trkpt>
      <trkpt lat="45.25153" lon="-0.51546">
        <ele>41</ele>
        <time>2021-01-10T19:49:55Z</time>
      </trkpt>
      <trkpt lat="45.25139" lon="-0.51511">
        <ele>42</ele>
        <time>2021-01-10T19:50:33Z</time>
      </trkpt>
      <trkpt lat="45.25122" lon="-0.51463">
        <ele>43</ele>
        <time>2021-01-10T19:51:23Z</time>
      </trkpt>
      <trkpt lat="45.25102" lon="-0.51423">
        <ele>44</ele>
        <time>2021-01-10T19:52:09Z</time>
      </trkpt>
      <trkpt lat="45.25089" lon="-0.51389">
        <ele>45</ele>
        <time>2021-01-10T19:52:46Z</time>
      </trkpt>
      <trkpt lat="45.25078" lon="-0.51335">
        <ele>45</ele>
        <time>2021-01-10T19:53:38Z</time>
      </trkpt>
      <trkpt lat="45.25075" lon="-0.51282">
        <ele>44</ele>
        <time>2021-01-10T19:54:28Z</time>
      </trkpt>
      <trkpt lat="45.25072" lon="-0.51229">
        <ele>42</ele>
        <time>2021-01-10T19:55:18Z</time>
      </trkpt>
      <trkpt lat="45.25065" lon="-0.51181">
        <ele>41</ele>
        <time>2021-01-10T19:56:04Z</time>
      </trkpt>
      <trkpt lat="45.25062" lon="-0.51132">
        <ele>40</ele>
        <time>2021-01-10T19:56:51Z</time>
      </trkpt>
      <trkpt lat="45.25056" lon="-0.5107">
        <ele>39</ele>
        <time>2021-01-10T19:57:49Z</time>
      </trkpt>
      <trkpt lat="45.25052" lon="-0.5102">
        <ele>38</ele>
        <time>2021-01-10T19:58:37Z</time>
      </trkpt>
      <trkpt lat="45.25047" lon="-0.50953">
        <ele>37</ele>
        <time>2021-01-10T19:59:40Z</time>
      </trkpt>
      <trkpt lat="45.25125" lon="-0.50941">
        <ele>39</ele>
        <time>2021-01-10T20:01:25Z</time>
      </trkpt>
      <trkpt lat="45.25121" lon="-0.50917">
        <ele>39</ele>
        <time>2021-01-10T20:01:48Z</time>
      </trkpt>
      <trkpt lat="45.25111" lon="-0.50892">
        <ele>39</ele>
        <time>2021-01-10T20:02:15Z</time>
      </trkpt>
      <trkpt lat="45.25095" lon="-0.50851">
        <ele>39</ele>
        <time>2021-01-10T20:02:59Z</time>
      </trkpt>
      <trkpt lat="45.25071" lon="-0.5081">
        <ele>40</ele>
        <time>2021-01-10T20:03:49Z</time>
      </trkpt>
      <trkpt lat="45.25047" lon="-0.50765">
        <ele>41</ele>
        <time>2021-01-10T20:04:42Z</time>
      </trkpt>
      <trkpt lat="45.25035" lon="-0.50727">
        <ele>42</ele>
        <time>2021-01-10T20:05:21Z</time>
      </trkpt>
      <trkpt lat="45.25024" lon="-0.50672">
        <ele>43</ele>
        <time>2021-01-10T20:06:15Z</time>
      </trkpt>
      <trkpt lat="45.2501" lon="-0.50621">
        <ele>44</ele>
        <time>2021-01-10T20:07:06Z</time>
      </trkpt>
      <trkpt lat="45.25015" lon="-0.50571">
        <ele>44</ele>
        <time>2021-01-10T20:07:54Z</time>
      </trkpt>
      <trkpt lat="45.25026" lon="-0.50521">
        <ele>45</ele>
        <time>2021-01-10T20:08:43Z</time>
      </trkpt>
      <trkpt lat="45.25037" lon="-0.50484">
        <ele>45</ele>
        <time>2021-01-10T20:09:21Z</time>
      </trkpt>
      <trkpt lat="45.25035" lon="-0.50433">
        <ele>46</ele>
        <time>2021-01-10T20:10:09Z</time>
      </trkpt>
      <trkpt lat="45.25028" lon="-0.50363">
        <ele>46</ele>
        <time>2021-01-10T20:11:15Z</time>
      </trkpt>
      <trkpt lat="45.25027" lon="-0.50295">
        <ele>46</ele>
        <time>2021-01-10T20:12:19Z</time>
      </trkpt>
      <trkpt lat="45.25026" lon="-0.50226">
        <ele>46</ele>
        <time>2021-01-10T20:13:24Z</time>
      </trkpt>
      <trkpt lat="45.25025" lon="-0.50169">
        <ele>44</ele>
        <time>2021-01-10T20:14:17Z</time>
      </trkpt>
      <trkpt lat="45.25047" lon="-0.50114">
        <ele>43</ele>
        <time>2021-01-10T20:15:17Z</time>
      </trkpt>
      <trkpt lat="45.25071" lon="-0.50055">
        <ele>43</ele>
        <time>2021-01-10T20:16:21Z</time>
      </trkpt>
      <trkpt lat="45.2508" lon="-0.50012">
        <ele>43</ele>
        <time>2021-01-10T20:17:03Z</time>
      </trkpt>
      <trkpt lat="45.25084" lon="-0.4997">
        <ele>42</ele>
        <time>2021-01-10T20:17:43Z</time>
      </trkpt>
      <trkpt lat="45.25118" lon="-0.4994">
        <ele>42</ele>
        <time>2021-01-10T20:18:36Z</time>
      </trkpt>
      <trkpt lat="45.25162" lon="-0.49902">
        <ele>42</ele>
        <time>2021-01-10T20:19:45Z</time>
      </trkpt>
      <trkpt lat="45.25199" lon="-0.49864">
        <ele>42</ele>
        <time>2021-01-10T20:20:46Z</time>
      </trkpt>
      <trkpt lat="45.2524" lon="-0.49808">
        <ele>40</ele>
        <time>2021-01-10T20:22:02Z</time>
      </trkpt>
      <trkpt lat="45.25256" lon="-0.49756">
        <ele>38</ele>
        <time>2021-01-10T20:22:55Z</time>
      </trkpt>
      <trkpt lat="45.25259" lon="-0.49709">
        <ele>38</ele>
        <time>2021-01-10T20:23:39Z</time>
      </trkpt>
      <trkpt lat="45.25266" lon="-0.49659">
        <ele>37</ele>
        <time>2021-01-10T20:24:27Z</time>
      </trkpt>
      <trkpt lat="45.25285" lon="-0.496">
        <ele>35</ele>
        <time>2021-01-10T20:25:28Z</time>
      </trkpt>
      <trkpt lat="45.25317" lon="-0.49554">
        <ele>34</ele>
        <time>2021-01-10T20:26:29Z</time>
      </trkpt>
      <trkpt lat="45.25369" lon="-0.49527">
        <ele>33</ele>
        <time>2021-01-10T20:27:43Z</time>
      </trkpt>
      <trkpt lat="45.25421" lon="-0.49509">
        <ele>32</ele>
        <time>2021-01-10T20:28:54Z</time>
      </trkpt>
      <trkpt lat="45.25442" lon="-0.49475">
        <ele>31</ele>
        <time>2021-01-10T20:29:37Z</time>
      </trkpt>
      <trkpt lat="45.25445" lon="-0.4943">
        <ele>31</ele>
        <time>2021-01-10T20:30:19Z</time>
      </trkpt>
      <trkpt lat="45.25438" lon="-0.4938">
        <ele>31</ele>
        <time>2021-01-10T20:31:07Z</time>
      </trkpt>
      <trkpt lat="45.25439" lon="-0.49354">
        <ele>30</ele>
        <time>2021-01-10T20:31:32Z</time>
      </trkpt>
      <trkpt lat="45.25472" lon="-0.4934">
        <ele>29</ele>
        <time>2021-01-10T20:32:18Z</time>
      </trkpt>
      <trkpt lat="45.25512" lon="-0.49342">
        <ele>29</ele>
        <time>2021-01-10T20:33:11Z</time>
      </trkpt>
      <trkpt lat="45.25535" lon="-0.49364">
        <ele>30</ele>
        <time>2021-01-10T20:33:48Z</time>
      </trkpt>
      <trkpt lat="45.25549" lon="-0.49424">
        <ele>31</ele>
        <time>2021-01-10T20:34:47Z</time>
      </trkpt>
      <trkpt lat="45.25571" lon="-0.49495">
        <ele>30</ele>
        <time>2021-01-10T20:36:00Z</time>
      </trkpt>
      <trkpt lat="45.2559" lon="-0.49594">
        <ele>29</ele>
        <time>2021-01-10T20:37:37Z</time>
      </trkpt>
      <trkpt lat="45.25598" lon="-0.4968">
        <ele>30</ele>
        <time>2021-01-10T20:38:58Z</time>
      </trkpt>
      <trkpt lat="45.25604" lon="-0.49738">
        <ele>31</ele>
        <time>2021-01-10T20:39:53Z</time>
      </trkpt>
      <trkpt lat="45.25641" lon="-0.49721">
        <ele>33</ele>
        <time>2021-01-10T20:40:45Z</time>
      </trkpt>
      <trkpt lat="45.25688" lon="-0.497">
        <ele>34</ele>
        <time>2021-01-10T20:41:51Z</time>
      </trkpt>
      <trkpt lat="45.25755" lon="-0.49694">
        <ele>35</ele>
        <time>2021-01-10T20:43:20Z</time>
      </trkpt>
      <trkpt lat="45.25811" lon="-0.49701">
        <ele>35</ele>
        <time>2021-01-10T20:44:35Z</time>
      </trkpt>
      <trkpt lat="45.2586" lon="-0.49706">
        <ele>36</ele>
        <time>2021-01-10T20:45:41Z</time>
      </trkpt>
      <trkpt lat="45.25896" lon="-0.49692">
        <ele>37</ele>
        <time>2021-01-10T20:46:31Z</time>
      </trkpt>
      <trkpt lat="45.25921" lon="-0.49741">
        <ele>37</ele>
        <time>2021-01-10T20:47:28Z</time>
      </trkpt>
      <trkpt lat="45.25939" lon="-0.4982">
        <ele>39</ele>
        <time>2021-01-10T20:48:46Z</time>
      </trkpt>
      <trkpt lat="45.25962" lon="-0.49897">
        <ele>41</ele>
        <time>2021-01-10T20:50:04Z</time>
      </trkpt>
      <trkpt lat="45.26017" lon="-0.49899">
        <ele>43</ele>
        <time>2021-01-10T20:51:18Z</time>
      </trkpt>
      <trkpt lat="45.26096" lon="-0.49894">
        <ele>45</ele>
        <time>2021-01-10T20:53:03Z</time>
      </trkpt>
      <trkpt lat="45.26233" lon="-0.49888">
        <ele>48</ele>
        <time>2021-01-10T20:56:06Z</time>
      </trkpt>
      <trkpt lat="45.2637" lon="-0.49882">
        <ele>51</ele>
        <time>2021-01-10T20:59:09Z</time>
      </trkpt>
      <trkpt lat="45.26412" lon="-0.4988">
        <ele>51</ele>
        <time>2021-01-10T21:00:05Z</time>
      </trkpt>
      <trkpt lat="45.26418" lon="-0.49935">
        <ele>50</ele>
        <time>2021-01-10T21:00:57Z</time>
      </trkpt>
      <trkpt lat="45.26415" lon="-0.50014">
        <ele>48</ele>
        <time>2021-01-10T21:02:12Z</time>
      </trkpt>
      <trkpt lat="45.26418" lon="-0.50123">
        <ele>47</ele>
        <time>2021-01-10T21:03:54Z</time>
      </trkpt>
      <trkpt lat="45.26416" lon="-0.50194">
        <ele>47</ele>
        <time>2021-01-10T21:05:01Z</time>
      </trkpt>
      <trkpt lat="45.26412" lon="-0.50229">
        <ele>47</ele>
        <time>2021-01-10T21:05:34Z</time>
      </trkpt>
      <trkpt lat="45.2639" lon="-0.50288">
        <ele>46</ele>
        <time>2021-01-10T21:06:37Z</time>
      </trkpt>
      <trkpt lat="45.26356" lon="-0.5034">
        <ele>45</ele>
        <time>2021-01-10T21:07:44Z</time>
      </trkpt>
      <trkpt lat="45.26341" lon="-0.50361">
        <ele>44</ele>
        <time>2021-01-10T21:08:12Z</time>
      </trkpt>
      <trkpt lat="45.26328" lon="-0.50387">
        <ele>44</ele>
        <time>2021-01-10T21:08:42Z</time>
      </trkpt>
      <trkpt lat="45.26316" lon="-0.50437">
        <ele>44</ele>
        <time>2021-01-10T21:09:31Z</time>
      </trkpt>
      <trkpt lat="45.26303" lon="-0.50498">
        <ele>44</ele>
        <time>2021-01-10T21:10:31Z</time>
      </trkpt>
      <trkpt lat="45.26302" lon="-0.50539">
        <ele>45</ele>
        <time>2021-01-10T21:11:10Z</time>
      </trkpt>
      <trkpt lat="45.26304" lon="-0.50593">
        <ele>46</ele>
        <time>2021-01-10T21:12:00Z</time>
      </trkpt>
      <trkpt lat="45.2631" lon="-0.50634">
        <ele>46</ele>
        <time>2021-01-10T21:12:40Z</time>
      </trkpt>
      <trkpt lat="45.26316" lon="-0.50688">
        <ele>46</ele>
        <time>2021-01-10T21:13:31Z</time>
      </trkpt>
      <trkpt lat="45.26314" lon="-0.50713">
        <ele>46</ele>
        <time>2021-01-10T21:13:55Z</time>
      </trkpt>
      <trkpt lat="45.26311" lon="-0.50745">
        <ele>46</ele>
        <time>2021-01-10T21:14:25Z</time>
      </trkpt>
      <trkpt lat="45.26286" lon="-0.50815">
        <ele>46</ele>
        <time>2021-01-10T21:15:39Z</time>
      </trkpt>
      <trkpt lat="45.26265" lon="-0.50864">
        <ele>46</ele>
        <time>2021-01-10T21:16:33Z</time>
      </trkpt>
      <trkpt lat="45.2624" lon="-0.50926">
        <ele>45</ele>
        <time>2021-01-10T21:17:40Z</time>
      </trkpt>
      <trkpt lat="45.26219" lon="-0.50976">
        <ele>43</ele>
        <time>2021-01-10T21:18:34Z</time>
      </trkpt>
      <trkpt lat="45.26202" lon="-0.51006">
        <ele>42</ele>
        <time>2021-01-10T21:19:11Z</time>
      </trkpt>
      <trkpt lat="45.2617" lon="-0.51044">
        <ele>40</ele>
        <time>2021-01-10T21:20:06Z</time>
      </trkpt>
      <trkpt lat="45.26113" lon="-0.51108">
        <ele>35</ele>
        <time>2021-01-10T21:21:43Z</time>
      </trkpt>
      <trkpt lat="45.26069" lon="-0.51162">
        <ele>32</ele>
        <time>2021-01-10T21:23:01Z</time>
      </trkpt>
      <trkpt lat="45.26054" lon="-0.51193">
        <ele>31</ele>
        <time>2021-01-10T21:23:36Z</time>
      </trkpt>
      <trkpt lat="45.26034" lon="-0.51235">
        <ele>29</ele>
        <time>2021-01-10T21:24:24Z</time>
      </trkpt>
      <trkpt lat="45.26009" lon="-0.51269">
        <ele>28</ele>
        <time>2021-01-10T21:25:10Z</time>
      </trkpt>
      <trkpt lat="45.25978" lon="-0.51302">
        <ele>26</ele>
        <time>2021-01-10T21:26:02Z</time>
      </trkpt>
      <trkpt lat="45.25941" lon="-0.51322">
        <ele>24</ele>
        <time>2021-01-10T21:26:54Z</time>
      </trkpt>
      <trkpt lat="45.25951" lon="-0.51366">
        <ele>24</ele>
        <time>2021-01-10T21:27:38Z</time>
      </trkpt>
      <trkpt lat="45.25965" lon="-0.51433">
        <ele>24</ele>
        <time>2021-01-10T21:28:44Z</time>
      </trkpt>
      <trkpt lat="45.25975" lon="-0.5148">
        <ele>24</ele>
        <time>2021-01-10T21:29:30Z</time>
      </trkpt>
      <trkpt lat="45.25986" lon="-0.51542">
        <ele>26</ele>
        <time>2021-01-10T21:30:30Z</time>
      </trkpt>
      <trkpt lat="45.25996" lon="-0.51593">
        <ele>27</ele>
        <time>2021-01-10T21:31:19Z</time>
      </trkpt>
      <trkpt lat="45.25998" lon="-0.51622">
        <ele>27</ele>
        <time>2021-01-10T21:31:47Z</time>
      </trkpt>
      <trkpt lat="45.26023" lon="-0.51601">
        <ele>28</ele>
        <time>2021-01-10T21:32:26Z</time>
      </trkpt>
      <trkpt lat="45.26081" lon="-0.5156">
        <ele>30</ele>
        <time>2021-01-10T21:33:52Z</time>
      </trkpt>
      <trkpt lat="45.26136" lon="-0.51536">
        <ele>31</ele>
        <time>2021-01-10T21:35:09Z</time>
      </trkpt>
      <trkpt lat="45.26183" lon="-0.51513">
        <ele>32</ele>
        <time>2021-01-10T21:36:15Z</time>
      </trkpt>
      <trkpt lat="45.26217" lon="-0.51493">
        <ele>33</ele>
        <time>2021-01-10T21:37:04Z</time>
      </trkpt>
      <trkpt lat="45.26258" lon="-0.51489">
        <ele>34</ele>
        <time>2021-01-10T21:37:59Z</time>
      </trkpt>
      <trkpt lat="45.26312" lon="-0.51511">
        <ele>36</ele>
        <time>2021-01-10T21:39:14Z</time>
      </trkpt>
      <trkpt lat="45.26377" lon="-0.51543">
        <ele>39</ele>
        <time>2021-01-10T21:40:46Z</time>
      </trkpt>
      <trkpt lat="45.2645" lon="-0.51574">
        <ele>42</ele>
        <time>2021-01-10T21:42:28Z</time>
      </trkpt>
      <trkpt lat="45.26484" lon="-0.51586">
        <ele>44</ele>
        <time>2021-01-10T21:43:14Z</time>
      </trkpt>
      <trkpt lat="45.26491" lon="-0.51662">
        <ele>45</ele>
        <time>2021-01-10T21:44:26Z</time>
      </trkpt>
      <trkpt lat="45.26496" lon="-0.51733">
        <ele>45</ele>
        <time>2021-01-10T21:45:33Z</time>
      </trkpt>
      <trkpt lat="45.26508" lon="-0.5187">
        <ele>43</ele>
        <time>2021-01-10T21:47:43Z</time>
      </trkpt>
      <trkpt lat="45.2651" lon="-0.51932">
        <ele>41</ele>
        <time>2021-01-10T21:48:41Z</time>
      </trkpt>
      <trkpt lat="45.26515" lon="-0.51994">
        <ele>38</ele>
        <time>2021-01-10T21:49:40Z</time>
      </trkpt>
      <trkpt lat="45.26516" lon="-0.52015">
        <ele>38</ele>
        <time>2021-01-10T21:50:00Z</time>
      </trkpt>
      <trkpt lat="45.26515" lon="-0.52061">
        <ele>38</ele>
        <time>2021-01-10T21:50:43Z</time>
      </trkpt>
      <trkpt lat="45.26507" lon="-0.52124">
        <ele>38</ele>
        <time>2021-01-10T21:51:43Z</time>
      </trkpt>
      <trkpt lat="45.26509" lon="-0.52194">
        <ele>40</ele>
        <time>2021-01-10T21:52:49Z</time>
      </trkpt>
      <trkpt lat="45.26535" lon="-0.52261">
        <ele>42</ele>
        <time>2021-01-10T21:54:01Z</time>
      </trkpt>
      <trkpt lat="45.2656" lon="-0.52311">
        <ele>45</ele>
        <time>2021-01-10T21:54:58Z</time>
      </trkpt>
      <trkpt lat="45.26585" lon="-0.52361">
        <ele>46</ele>
        <time>2021-01-10T21:55:56Z</time>
      </trkpt>
      <trkpt lat="45.26603" lon="-0.52413">
        <ele>47</ele>
        <time>2021-01-10T21:56:50Z</time>
      </trkpt>
      <trkpt lat="45.26603" lon="-0.52443">
        <ele>47</ele>
        <time>2021-01-10T21:57:18Z</time>
      </trkpt>
      <trkpt lat="45.26604" lon="-0.52482">
        <ele>48</ele>
        <time>2021-01-10T21:57:55Z</time>
      </trkpt>
      <trkpt lat="45.26609" lon="-0.52502">
        <ele>48</ele>
        <time>2021-01-10T21:58:15Z</time>
      </trkpt>
      <trkpt lat="45.26607" lon="-0.52517">
        <ele>48</ele>
        <time>2021-01-10T21:58:29Z</time>
      </trkpt>
      <trkpt lat="45.2664" lon="-0.52502">
        <ele>49</ele>
        <time>2021-01-10T21:59:16Z</time>
      </trkpt>
      <trkpt lat="45.26698" lon="-0.52473">
        <ele>51</ele>
        <time>2021-01-10T22:00:38Z</time>
      </trkpt>
      <trkpt lat="45.26745" lon="-0.5246">
        <ele>51</ele>
        <time>2021-01-10T22:01:42Z</time>
      </trkpt>
      <trkpt lat="45.26784" lon="-0.52468">
        <ele>52</ele>
        <time>2021-01-10T22:02:34Z</time>
      </trkpt>
      <trkpt lat="45.26821" lon="-0.5246">
        <ele>52</ele>
        <time>2021-01-10T22:03:24Z</time>
      </trkpt>
      <trkpt lat="45.26859" lon="-0.52443">
        <ele>52</ele>
        <time>2021-01-10T22:04:17Z</time>
      </trkpt>
      <trkpt lat="45.26853" lon="-0.5242">
        <ele>53</ele>
        <time>2021-01-10T22:04:40Z</time>
      </trkpt>
    </trkseg>
  </trk>
</gpx>